sensor_id;sensor_type;location;lat;lon;timestamp;temperature;humidity
18341;DHT22;9296;48.084;16.352;2023-02-28T00:01:42;1.70;99.90
18341;DHT22;9296;48.084;16.352;2023-02-28T00:04:09;1.70;99.90
18341;DHT22;9296;48.084;16.352;2023-02-28T00:06:36;1.70;99.90
18341;DHT22;9296;48.084;16.352;2023-02-28T00:09:03;1.70;99.90
18341;DHT22;9296;48.084;16.352;2023-02-28T00:11:30;1.70;99.90
18341;DHT22;9296;48.084;16.352;2023-02-28T00:13:56;1.70;99.90
18341;DHT22;9296;48.084;16.352;2023-02-28T00:16:25;1.80;99.90
18341;DHT22;9296;48.084;16.352;2023-02-28T00:18:52;1.70;99.90
18341;DHT22;9296;48.084;16.352;2023-02-28T00:21:19;1.80;99.90
18341;DHT22;9296;48.084;16.352;2023-02-28T00:24:05;1.70;99.90
18341;DHT22;9296;48.084;16.352;2023-02-28T00:26:32;1.70;99.90
18341;DHT22;9296;48.084;16.352;2023-02-28T00:28:59;1.70;99.90
18341;DHT22;9296;48.084;16.352;2023-02-28T00:31:28;1.70;99.90
18341;DHT22;9296;48.084;16.352;2023-02-28T00:33:54;1.70;99.90
18341;DHT22;9296;48.084;16.352;2023-02-28T00:36:22;1.70;99.90
18341;DHT22;9296;48.084;16.352;2023-02-28T00:38:49;1.70;99.90
18341;DHT22;9296;48.084;16.352;2023-02-28T00:41:16;1.70;99.90
18341;DHT22;9296;48.084;16.352;2023-02-28T00:43:43;1.80;99.90
18341;DHT22;9296;48.084;16.352;2023-02-28T00:46:10;1.80;99.90
18341;DHT22;9296;48.084;16.352;2023-02-28T00:48:38;1.80;99.90
18341;DHT22;9296;48.084;16.352;2023-02-28T00:51:05;1.70;99.90
18341;DHT22;9296;48.084;16.352;2023-02-28T00:57:12;1.80;99.90
18341;DHT22;9296;48.084;16.352;2023-02-28T00:59:39;1.70;99.90
18341;DHT22;9296;48.084;16.352;2023-02-28T01:02:06;1.70;99.90
18341;DHT22;9296;48.084;16.352;2023-02-28T01:04:35;1.60;99.90
18341;DHT22;9296;48.084;16.352;2023-02-28T01:07:01;1.80;99.90
18341;DHT22;9296;48.084;16.352;2023-02-28T01:09:29;1.60;99.90
18341;DHT22;9296;48.084;16.352;2023-02-28T01:11:55;1.60;99.90
18341;DHT22;9296;48.084;16.352;2023-02-28T01:14:22;1.60;99.90
18341;DHT22;9296;48.084;16.352;2023-02-28T01:16:49;1.60;99.90
18341;DHT22;9296;48.084;16.352;2023-02-28T01:19:17;1.60;99.90
18341;DHT22;9296;48.084;16.352;2023-02-28T01:21:45;1.60;99.90
18341;DHT22;9296;48.084;16.352;2023-02-28T01:27:18;1.60;99.90
18341;DHT22;9296;48.084;16.352;2023-02-28T01:29:45;1.70;99.90
18341;DHT22;9296;48.084;16.352;2023-02-28T01:32:12;1.70;99.90
18341;DHT22;9296;48.084;16.352;2023-02-28T01:34:39;1.70;99.90
18341;DHT22;9296;48.084;16.352;2023-02-28T01:37:07;1.80;99.90
18341;DHT22;9296;48.084;16.352;2023-02-28T01:39:34;1.80;99.90
18341;DHT22;9296;48.084;16.352;2023-02-28T01:42:01;1.70;99.90
18341;DHT22;9296;48.084;16.352;2023-02-28T01:45:04;1.60;99.90
18341;DHT22;9296;48.084;16.352;2023-02-28T01:47:35;1.60;99.90
18341;DHT22;9296;48.084;16.352;2023-02-28T01:50:07;1.60;99.90
18341;DHT22;9296;48.084;16.352;2023-02-28T01:52:36;1.70;99.90
18341;DHT22;9296;48.084;16.352;2023-02-28T01:55:05;1.70;99.90
18341;DHT22;9296;48.084;16.352;2023-02-28T01:57:34;1.80;99.90
18341;DHT22;9296;48.084;16.352;2023-02-28T02:00:08;1.80;99.90
18341;DHT22;9296;48.084;16.352;2023-02-28T02:02:36;1.80;99.90
18341;DHT22;9296;48.084;16.352;2023-02-28T02:05:07;1.80;99.90
18341;DHT22;9296;48.084;16.352;2023-02-28T02:07:37;1.80;99.90
18341;DHT22;9296;48.084;16.352;2023-02-28T02:10:11;1.90;99.90
18341;DHT22;9296;48.084;16.352;2023-02-28T02:12:55;1.90;99.90
18341;DHT22;9296;48.084;16.352;2023-02-28T02:15:30;1.90;99.90
18341;DHT22;9296;48.084;16.352;2023-02-28T02:18:03;1.80;99.90
18341;DHT22;9296;48.084;16.352;2023-02-28T02:20:51;1.60;99.90
18341;DHT22;9296;48.084;16.352;2023-02-28T02:23:45;1.70;99.90
18341;DHT22;9296;48.084;16.352;2023-02-28T02:26:58;1.70;99.90
18341;DHT22;9296;48.084;16.352;2023-02-28T02:30:14;1.60;99.90
18341;DHT22;9296;48.084;16.352;2023-02-28T02:35:47;1.60;99.90
18341;DHT22;9296;48.084;16.352;2023-02-28T02:38:20;1.70;99.90
18341;DHT22;9296;48.084;16.352;2023-02-28T02:44:17;1.60;99.90
18341;DHT22;9296;48.084;16.352;2023-02-28T02:46:49;1.60;99.90
18341;DHT22;9296;48.084;16.352;2023-02-28T02:49:20;1.60;99.90
18341;DHT22;9296;48.084;16.352;2023-02-28T02:51:49;1.50;99.90
18341;DHT22;9296;48.084;16.352;2023-02-28T02:54:20;1.50;99.90
18341;DHT22;9296;48.084;16.352;2023-02-28T02:56:50;1.50;99.90
18341;DHT22;9296;48.084;16.352;2023-02-28T02:59:20;1.50;99.90
18341;DHT22;9296;48.084;16.352;2023-02-28T03:01:51;1.50;99.90
18341;DHT22;9296;48.084;16.352;2023-02-28T03:04:21;1.30;99.90
18341;DHT22;9296;48.084;16.352;2023-02-28T03:06:52;1.20;99.90
18341;DHT22;9296;48.084;16.352;2023-02-28T03:12:52;1.30;99.90
18341;DHT22;9296;48.084;16.352;2023-02-28T03:15:27;1.30;99.90
18341;DHT22;9296;48.084;16.352;2023-02-28T03:18:05;1.30;99.90
18341;DHT22;9296;48.084;16.352;2023-02-28T03:20:38;1.20;99.90
18341;DHT22;9296;48.084;16.352;2023-02-28T03:23:14;1.50;99.90
18341;DHT22;9296;48.084;16.352;2023-02-28T03:29:08;1.20;99.90
18341;DHT22;9296;48.084;16.352;2023-02-28T03:31:41;1.20;99.90
18341;DHT22;9296;48.084;16.352;2023-02-28T03:34:13;1.20;99.90
18341;DHT22;9296;48.084;16.352;2023-02-28T03:36:48;1.20;99.90
18341;DHT22;9296;48.084;16.352;2023-02-28T03:42:41;1.30;99.90
18341;DHT22;9296;48.084;16.352;2023-02-28T03:45:11;1.30;99.90
18341;DHT22;9296;48.084;16.352;2023-02-28T03:47:43;1.40;99.90
18341;DHT22;9296;48.084;16.352;2023-02-28T03:50:16;1.40;99.90
18341;DHT22;9296;48.084;16.352;2023-02-28T03:52:47;1.30;99.90
18341;DHT22;9296;48.084;16.352;2023-02-28T03:55:16;1.20;99.90
18341;DHT22;9296;48.084;16.352;2023-02-28T03:57:54;1.10;99.90
18341;DHT22;9296;48.084;16.352;2023-02-28T04:00:28;1.00;99.90
18341;DHT22;9296;48.084;16.352;2023-02-28T04:02:56;0.90;99.90
18341;DHT22;9296;48.084;16.352;2023-02-28T04:05:24;0.90;99.90
18341;DHT22;9296;48.084;16.352;2023-02-28T04:07:51;0.90;99.90
18341;DHT22;9296;48.084;16.352;2023-02-28T04:10:18;0.90;99.90
18341;DHT22;9296;48.084;16.352;2023-02-28T04:12:46;0.90;99.90
18341;DHT22;9296;48.084;16.352;2023-02-28T04:15:13;0.90;99.90
18341;DHT22;9296;48.084;16.352;2023-02-28T04:17:40;1.10;99.90
18341;DHT22;9296;48.084;16.352;2023-02-28T04:20:08;0.90;99.90
18341;DHT22;9296;48.084;16.352;2023-02-28T04:22:36;0.90;99.90
18341;DHT22;9296;48.084;16.352;2023-02-28T04:25:04;0.90;99.90
18341;DHT22;9296;48.084;16.352;2023-02-28T04:27:32;0.90;99.90
18341;DHT22;9296;48.084;16.352;2023-02-28T04:30:00;0.90;99.90
18341;DHT22;9296;48.084;16.352;2023-02-28T04:32:27;0.90;99.90
18341;DHT22;9296;48.084;16.352;2023-02-28T04:34:54;0.90;99.90
18341;DHT22;9296;48.084;16.352;2023-02-28T04:37:21;1.00;99.90
18341;DHT22;9296;48.084;16.352;2023-02-28T04:39:53;1.00;99.90
18341;DHT22;9296;48.084;16.352;2023-02-28T04:42:20;1.00;99.90
18341;DHT22;9296;48.084;16.352;2023-02-28T04:44:47;0.90;99.90
18341;DHT22;9296;48.084;16.352;2023-02-28T04:47:15;0.80;99.90
18341;DHT22;9296;48.084;16.352;2023-02-28T04:49:42;0.80;99.90
18341;DHT22;9296;48.084;16.352;2023-02-28T04:52:09;0.80;99.90
18341;DHT22;9296;48.084;16.352;2023-02-28T04:54:36;0.90;99.90
18341;DHT22;9296;48.084;16.352;2023-02-28T04:57:04;0.90;99.90
18341;DHT22;9296;48.084;16.352;2023-02-28T04:59:31;0.90;99.90
18341;DHT22;9296;48.084;16.352;2023-02-28T05:01:58;0.90;99.90
18341;DHT22;9296;48.084;16.352;2023-02-28T05:04:26;1.00;99.90
18341;DHT22;9296;48.084;16.352;2023-02-28T05:06:53;0.90;99.90
18341;DHT22;9296;48.084;16.352;2023-02-28T05:16:02;0.90;99.90
18341;DHT22;9296;48.084;16.352;2023-02-28T05:18:29;0.90;99.90
18341;DHT22;9296;48.084;16.352;2023-02-28T05:20:57;0.90;99.90
18341;DHT22;9296;48.084;16.352;2023-02-28T05:23:24;0.90;99.90
18341;DHT22;9296;48.084;16.352;2023-02-28T05:29:13;0.80;99.90
18341;DHT22;9296;48.084;16.352;2023-02-28T05:31:39;0.70;99.90
18341;DHT22;9296;48.084;16.352;2023-02-28T05:34:06;0.70;99.90
18341;DHT22;9296;48.084;16.352;2023-02-28T05:36:36;0.70;99.90
18341;DHT22;9296;48.084;16.352;2023-02-28T05:39:05;0.70;99.90
18341;DHT22;9296;48.084;16.352;2023-02-28T05:44:54;0.70;99.90
18341;DHT22;9296;48.084;16.352;2023-02-28T05:47:21;0.70;99.90
18341;DHT22;9296;48.084;16.352;2023-02-28T05:49:48;0.60;99.90
18341;DHT22;9296;48.084;16.352;2023-02-28T05:52:17;0.60;99.90
18341;DHT22;9296;48.084;16.352;2023-02-28T05:54:44;0.50;99.90
18341;DHT22;9296;48.084;16.352;2023-02-28T05:57:12;0.40;99.90
18341;DHT22;9296;48.084;16.352;2023-02-28T05:59:39;0.40;99.90
18341;DHT22;9296;48.084;16.352;2023-02-28T06:02:09;0.40;99.90
18341;DHT22;9296;48.084;16.352;2023-02-28T06:04:37;0.50;99.90
18341;DHT22;9296;48.084;16.352;2023-02-28T06:07:06;0.50;99.90
18341;DHT22;9296;48.084;16.352;2023-02-28T06:09:35;0.50;99.90
18341;DHT22;9296;48.084;16.352;2023-02-28T06:12:03;0.50;99.90
18341;DHT22;9296;48.084;16.352;2023-02-28T06:14:31;0.60;99.90
18341;DHT22;9296;48.084;16.352;2023-02-28T06:16:59;0.70;99.90
18341;DHT22;9296;48.084;16.352;2023-02-28T06:19:27;0.70;99.90
18341;DHT22;9296;48.084;16.352;2023-02-28T06:21:55;0.70;99.90
18341;DHT22;9296;48.084;16.352;2023-02-28T06:28:04;1.20;99.90
18341;DHT22;9296;48.084;16.352;2023-02-28T06:30:31;1.70;99.90
18341;DHT22;9296;48.084;16.352;2023-02-28T06:32:59;1.90;99.90
18341;DHT22;9296;48.084;16.352;2023-02-28T06:35:26;1.90;99.90
18341;DHT22;9296;48.084;16.352;2023-02-28T06:37:52;1.90;99.90
18341;DHT22;9296;48.084;16.352;2023-02-28T06:40:20;2.00;99.90
18341;DHT22;9296;48.084;16.352;2023-02-28T06:42:47;1.80;99.90
18341;DHT22;9296;48.084;16.352;2023-02-28T06:45:15;2.00;99.90
18341;DHT22;9296;48.084;16.352;2023-02-28T06:47:42;2.20;99.90
18341;DHT22;9296;48.084;16.352;2023-02-28T06:50:11;2.20;99.90
18341;DHT22;9296;48.084;16.352;2023-02-28T06:52:38;2.20;99.90
18341;DHT22;9296;48.084;16.352;2023-02-28T06:55:07;2.20;99.90
18341;DHT22;9296;48.084;16.352;2023-02-28T06:57:35;2.40;99.90
18341;DHT22;9296;48.084;16.352;2023-02-28T07:00:05;2.60;99.90
18341;DHT22;9296;48.084;16.352;2023-02-28T07:02:34;2.50;99.90
18341;DHT22;9296;48.084;16.352;2023-02-28T07:05:01;2.60;99.90
18341;DHT22;9296;48.084;16.352;2023-02-28T07:07:28;2.70;99.90
18341;DHT22;9296;48.084;16.352;2023-02-28T07:13:55;2.50;99.90
18341;DHT22;9296;48.084;16.352;2023-02-28T07:16:25;2.50;99.90
18341;DHT22;9296;48.084;16.352;2023-02-28T07:18:53;2.50;99.90
18341;DHT22;9296;48.084;16.352;2023-02-28T07:21:21;2.40;99.90
18341;DHT22;9296;48.084;16.352;2023-02-28T07:23:48;2.40;99.90
18341;DHT22;9296;48.084;16.352;2023-02-28T07:26:17;2.70;99.90
18341;DHT22;9296;48.084;16.352;2023-02-28T07:28:45;2.60;99.90
18341;DHT22;9296;48.084;16.352;2023-02-28T07:31:13;2.70;99.90
18341;DHT22;9296;48.084;16.352;2023-02-28T07:33:41;2.80;99.90
18341;DHT22;9296;48.084;16.352;2023-02-28T07:36:11;2.90;99.90
18341;DHT22;9296;48.084;16.352;2023-02-28T07:38:40;3.00;99.90
18341;DHT22;9296;48.084;16.352;2023-02-28T07:44:29;3.30;99.90
18341;DHT22;9296;48.084;16.352;2023-02-28T07:46:56;3.30;99.90
18341;DHT22;9296;48.084;16.352;2023-02-28T07:49:23;3.50;99.90
18341;DHT22;9296;48.084;16.352;2023-02-28T07:51:51;3.60;99.90
18341;DHT22;9296;48.084;16.352;2023-02-28T07:54:18;3.70;99.90
18341;DHT22;9296;48.084;16.352;2023-02-28T08:00:09;3.90;99.90
18341;DHT22;9296;48.084;16.352;2023-02-28T08:02:36;4.10;99.90
18341;DHT22;9296;48.084;16.352;2023-02-28T08:05:04;4.30;99.90
18341;DHT22;9296;48.084;16.352;2023-02-28T08:07:33;4.20;99.90
18341;DHT22;9296;48.084;16.352;2023-02-28T08:10:00;4.10;99.90
18341;DHT22;9296;48.084;16.352;2023-02-28T08:12:27;4.10;99.90
18341;DHT22;9296;48.084;16.352;2023-02-28T08:14:53;4.30;99.90
18341;DHT22;9296;48.084;16.352;2023-02-28T08:17:20;4.60;99.90
18341;DHT22;9296;48.084;16.352;2023-02-28T08:19:48;4.60;99.90
18341;DHT22;9296;48.084;16.352;2023-02-28T08:22:15;4.70;99.90
18341;DHT22;9296;48.084;16.352;2023-02-28T08:24:43;5.00;99.90
18341;DHT22;9296;48.084;16.352;2023-02-28T08:27:10;5.30;99.90
18341;DHT22;9296;48.084;16.352;2023-02-28T08:29:37;6.00;99.90
18341;DHT22;9296;48.084;16.352;2023-02-28T08:32:05;6.10;99.90
18341;DHT22;9296;48.084;16.352;2023-02-28T08:34:32;6.40;99.90
18341;DHT22;9296;48.084;16.352;2023-02-28T08:36:59;6.80;99.90
18341;DHT22;9296;48.084;16.352;2023-02-28T08:39:26;7.50;99.90
18341;DHT22;9296;48.084;16.352;2023-02-28T08:42:13;7.30;99.90
18341;DHT22;9296;48.084;16.352;2023-02-28T08:44:40;8.00;99.90
18341;DHT22;9296;48.084;16.352;2023-02-28T08:47:07;8.20;99.90
18341;DHT22;9296;48.084;16.352;2023-02-28T08:49:33;8.40;99.50
18341;DHT22;9296;48.084;16.352;2023-02-28T08:52:00;8.70;99.90
18341;DHT22;9296;48.084;16.352;2023-02-28T08:54:27;9.60;99.90
18341;DHT22;9296;48.084;16.352;2023-02-28T08:56:56;10.10;97.00
18341;DHT22;9296;48.084;16.352;2023-02-28T08:59:25;9.60;95.80
18341;DHT22;9296;48.084;16.352;2023-02-28T09:01:52;9.80;96.80
18341;DHT22;9296;48.084;16.352;2023-02-28T09:04:19;9.60;97.10
18341;DHT22;9296;48.084;16.352;2023-02-28T09:06:45;10.30;95.40
18341;DHT22;9296;48.084;16.352;2023-02-28T09:09:14;10.30;94.40
18341;DHT22;9296;48.084;16.352;2023-02-28T09:15:07;8.80;95.80
18341;DHT22;9296;48.084;16.352;2023-02-28T09:17:34;8.00;97.20
18341;DHT22;9296;48.084;16.352;2023-02-28T09:20:01;7.50;98.50
18341;DHT22;9296;48.084;16.352;2023-02-28T09:22:27;7.00;99.60
18341;DHT22;9296;48.084;16.352;2023-02-28T09:24:54;6.90;99.90
18341;DHT22;9296;48.084;16.352;2023-02-28T09:27:21;6.60;99.90
18341;DHT22;9296;48.084;16.352;2023-02-28T09:29:48;6.40;99.90
18341;DHT22;9296;48.084;16.352;2023-02-28T09:32:17;6.20;99.90
18341;DHT22;9296;48.084;16.352;2023-02-28T09:34:44;6.10;99.90
18341;DHT22;9296;48.084;16.352;2023-02-28T09:37:11;6.20;99.90
18341;DHT22;9296;48.084;16.352;2023-02-28T09:39:38;6.70;99.90
18341;DHT22;9296;48.084;16.352;2023-02-28T09:42:05;7.80;99.90
18341;DHT22;9296;48.084;16.352;2023-02-28T09:44:40;8.50;99.90
18341;DHT22;9296;48.084;16.352;2023-02-28T09:47:13;8.80;99.30
18341;DHT22;9296;48.084;16.352;2023-02-28T09:49:46;8.90;98.00
18341;DHT22;9296;48.084;16.352;2023-02-28T09:52:17;8.90;98.20
18341;DHT22;9296;48.084;16.352;2023-02-28T09:54:45;9.20;98.20
18341;DHT22;9296;48.084;16.352;2023-02-28T09:57:18;9.60;97.90
18341;DHT22;9296;48.084;16.352;2023-02-28T09:59:54;9.30;97.30
18341;DHT22;9296;48.084;16.352;2023-02-28T10:02:46;9.10;97.80
18341;DHT22;9296;48.084;16.352;2023-02-28T10:05:19;8.80;97.80
18341;DHT22;9296;48.084;16.352;2023-02-28T10:07:56;8.90;98.10
18341;DHT22;9296;48.084;16.352;2023-02-28T10:13:35;9.20;98.00
18341;DHT22;9296;48.084;16.352;2023-02-28T10:16:06;9.00;97.10
18341;DHT22;9296;48.084;16.352;2023-02-28T10:18:41;9.00;97.20
18341;DHT22;9296;48.084;16.352;2023-02-28T10:21:16;8.90;97.40
18341;DHT22;9296;48.084;16.352;2023-02-28T10:23:43;8.90;97.80
18341;DHT22;9296;48.084;16.352;2023-02-28T10:29:35;8.90;98.00
18341;DHT22;9296;48.084;16.352;2023-02-28T10:32:02;8.70;97.70
18341;DHT22;9296;48.084;16.352;2023-02-28T10:34:30;8.70;98.10
18341;DHT22;9296;48.084;16.352;2023-02-28T10:36:59;8.60;98.00
18341;DHT22;9296;48.084;16.352;2023-02-28T10:39:40;8.40;98.20
18341;DHT22;9296;48.084;16.352;2023-02-28T10:42:21;8.30;98.90
18341;DHT22;9296;48.084;16.352;2023-02-28T10:45:05;8.50;99.10
18341;DHT22;9296;48.084;16.352;2023-02-28T10:47:34;8.60;98.20
18341;DHT22;9296;48.084;16.352;2023-02-28T10:50:02;8.50;98.90
18341;DHT22;9296;48.084;16.352;2023-02-28T10:52:36;8.40;99.30
18341;DHT22;9296;48.084;16.352;2023-02-28T10:58:28;8.60;98.80
18341;DHT22;9296;48.084;16.352;2023-02-28T11:00:56;8.40;98.20
18341;DHT22;9296;48.084;16.352;2023-02-28T11:03:25;8.40;97.80
18341;DHT22;9296;48.084;16.352;2023-02-28T11:05:55;8.50;99.00
18341;DHT22;9296;48.084;16.352;2023-02-28T11:08:23;8.40;98.70
18341;DHT22;9296;48.084;16.352;2023-02-28T11:14:46;8.40;98.30
18341;DHT22;9296;48.084;16.352;2023-02-28T11:17:19;8.40;98.10
18341;DHT22;9296;48.084;16.352;2023-02-28T11:19:50;8.20;98.60
18341;DHT22;9296;48.084;16.352;2023-02-28T11:22:19;8.00;98.90
18341;DHT22;9296;48.084;16.352;2023-02-28T11:24:51;7.60;99.30
18341;DHT22;9296;48.084;16.352;2023-02-28T11:30:41;6.90;99.90
18341;DHT22;9296;48.084;16.352;2023-02-28T11:33:27;6.70;99.90
18341;DHT22;9296;48.084;16.352;2023-02-28T11:35:58;6.80;99.90
18341;DHT22;9296;48.084;16.352;2023-02-28T11:38:26;6.80;99.90
18341;DHT22;9296;48.084;16.352;2023-02-28T11:41:05;6.80;99.90
18341;DHT22;9296;48.084;16.352;2023-02-28T11:43:44;6.80;99.90
18341;DHT22;9296;48.084;16.352;2023-02-28T11:46:23;6.60;99.90
18341;DHT22;9296;48.084;16.352;2023-02-28T11:49:00;6.60;99.90
18341;DHT22;9296;48.084;16.352;2023-02-28T11:51:32;6.60;99.90
18341;DHT22;9296;48.084;16.352;2023-02-28T11:54:11;6.50;99.90
18341;DHT22;9296;48.084;16.352;2023-02-28T12:00:11;6.90;99.90
18341;DHT22;9296;48.084;16.352;2023-02-28T12:02:59;7.40;98.80
18341;DHT22;9296;48.084;16.352;2023-02-28T12:05:34;7.70;97.50
18341;DHT22;9296;48.084;16.352;2023-02-28T12:08:13;7.80;97.20
18341;DHT22;9296;48.084;16.352;2023-02-28T12:10:52;7.90;98.90
18341;DHT22;9296;48.084;16.352;2023-02-28T12:13:25;8.10;99.30
18341;DHT22;9296;48.084;16.352;2023-02-28T12:16:15;8.10;98.10
18341;DHT22;9296;48.084;16.352;2023-02-28T12:19:11;8.10;98.70
18341;DHT22;9296;48.084;16.352;2023-02-28T12:21:53;8.30;97.40
18341;DHT22;9296;48.084;16.352;2023-02-28T12:30:39;8.10;96.90
18341;DHT22;9296;48.084;16.352;2023-02-28T12:33:12;8.10;96.80
18341;DHT22;9296;48.084;16.352;2023-02-28T12:35:44;8.50;96.70
18341;DHT22;9296;48.084;16.352;2023-02-28T12:38:18;8.20;96.10
18341;DHT22;9296;48.084;16.352;2023-02-28T12:40:50;8.10;96.50
18341;DHT22;9296;48.084;16.352;2023-02-28T12:43:21;7.80;96.60
18341;DHT22;9296;48.084;16.352;2023-02-28T12:45:52;7.80;97.00
18341;DHT22;9296;48.084;16.352;2023-02-28T12:48:25;7.70;96.90
18341;DHT22;9296;48.084;16.352;2023-02-28T12:50:54;7.80;96.70
18341;DHT22;9296;48.084;16.352;2023-02-28T12:53:27;8.10;96.70
18341;DHT22;9296;48.084;16.352;2023-02-28T12:56:02;7.90;97.10
18341;DHT22;9296;48.084;16.352;2023-02-28T12:58:35;8.00;96.90
18341;DHT22;9296;48.084;16.352;2023-02-28T13:07:36;8.30;96.80
18341;DHT22;9296;48.084;16.352;2023-02-28T13:10:08;8.10;96.20
18341;DHT22;9296;48.084;16.352;2023-02-28T13:13:13;8.20;96.60
18341;DHT22;9296;48.084;16.352;2023-02-28T13:15:41;8.00;96.50
18341;DHT22;9296;48.084;16.352;2023-02-28T13:18:30;7.90;96.60
18341;DHT22;9296;48.084;16.352;2023-02-28T13:20:57;7.80;96.90
18341;DHT22;9296;48.084;16.352;2023-02-28T13:23:40;7.40;97.20
18341;DHT22;9296;48.084;16.352;2023-02-28T13:32:36;7.70;96.70
18341;DHT22;9296;48.084;16.352;2023-02-28T13:35:35;7.40;97.00
18341;DHT22;9296;48.084;16.352;2023-02-28T13:38:32;7.40;97.50
18341;DHT22;9296;48.084;16.352;2023-02-28T13:44:07;6.80;97.40
18341;DHT22;9296;48.084;16.352;2023-02-28T13:46:36;6.80;98.00
18341;DHT22;9296;48.084;16.352;2023-02-28T13:49:19;6.60;98.20
18341;DHT22;9296;48.084;16.352;2023-02-28T13:51:47;6.50;98.70
18341;DHT22;9296;48.084;16.352;2023-02-28T13:54:24;6.40;98.90
18341;DHT22;9296;48.084;16.352;2023-02-28T13:57:04;6.30;99.10
18341;DHT22;9296;48.084;16.352;2023-02-28T13:59:40;6.30;99.30
18341;DHT22;9296;48.084;16.352;2023-02-28T14:02:37;6.40;99.30
18341;DHT22;9296;48.084;16.352;2023-02-28T14:05:13;6.70;98.80
18341;DHT22;9296;48.084;16.352;2023-02-28T14:07:45;6.90;98.60
18341;DHT22;9296;48.084;16.352;2023-02-28T14:10:24;7.00;98.10
18341;DHT22;9296;48.084;16.352;2023-02-28T14:15:48;7.10;98.00
18341;DHT22;9296;48.084;16.352;2023-02-28T14:18:19;7.20;98.40
18341;DHT22;9296;48.084;16.352;2023-02-28T14:20:48;7.30;98.00
18341;DHT22;9296;48.084;16.352;2023-02-28T14:23:33;7.20;97.50
18341;DHT22;9296;48.084;16.352;2023-02-28T14:26:05;7.20;97.60
18341;DHT22;9296;48.084;16.352;2023-02-28T14:28:47;7.40;97.70
18341;DHT22;9296;48.084;16.352;2023-02-28T14:31:22;7.50;97.50
18341;DHT22;9296;48.084;16.352;2023-02-28T14:34:17;7.60;97.40
18341;DHT22;9296;48.084;16.352;2023-02-28T14:36:49;7.40;97.10
18341;DHT22;9296;48.084;16.352;2023-02-28T14:39:18;7.30;96.80
18341;DHT22;9296;48.084;16.352;2023-02-28T14:41:46;7.10;96.20
18341;DHT22;9296;48.084;16.352;2023-02-28T14:44:16;6.90;97.20
18341;DHT22;9296;48.084;16.352;2023-02-28T14:46:46;7.00;97.30
18341;DHT22;9296;48.084;16.352;2023-02-28T14:49:18;7.00;97.30
18341;DHT22;9296;48.084;16.352;2023-02-28T14:51:47;7.00;97.50
18341;DHT22;9296;48.084;16.352;2023-02-28T14:54:15;7.00;97.50
18341;DHT22;9296;48.084;16.352;2023-02-28T14:56:43;6.90;97.40
18341;DHT22;9296;48.084;16.352;2023-02-28T14:59:28;7.20;97.50
18341;DHT22;9296;48.084;16.352;2023-02-28T15:02:16;7.00;97.90
18341;DHT22;9296;48.084;16.352;2023-02-28T15:04:52;7.10;97.10
18341;DHT22;9296;48.084;16.352;2023-02-28T15:07:20;7.00;97.20
18341;DHT22;9296;48.084;16.352;2023-02-28T15:10:07;6.80;97.50
18341;DHT22;9296;48.084;16.352;2023-02-28T15:12:35;6.90;97.70
18341;DHT22;9296;48.084;16.352;2023-02-28T15:15:02;6.70;97.50
18341;DHT22;9296;48.084;16.352;2023-02-28T15:17:31;6.70;97.60
18341;DHT22;9296;48.084;16.352;2023-02-28T15:19:58;6.70;97.50
18341;DHT22;9296;48.084;16.352;2023-02-28T15:22:31;6.60;97.70
18341;DHT22;9296;48.084;16.352;2023-02-28T15:25:00;6.70;97.70
18341;DHT22;9296;48.084;16.352;2023-02-28T15:27:32;6.60;97.50
18341;DHT22;9296;48.084;16.352;2023-02-28T15:30:04;6.70;97.60
18341;DHT22;9296;48.084;16.352;2023-02-28T15:32:34;6.70;97.50
18341;DHT22;9296;48.084;16.352;2023-02-28T15:35:19;6.70;97.80
18341;DHT22;9296;48.084;16.352;2023-02-28T15:37:48;6.70;97.90
18341;DHT22;9296;48.084;16.352;2023-02-28T15:40:26;6.70;98.10
18341;DHT22;9296;48.084;16.352;2023-02-28T15:43:04;6.60;97.90
18341;DHT22;9296;48.084;16.352;2023-02-28T15:45:38;6.50;98.10
18341;DHT22;9296;48.084;16.352;2023-02-28T15:48:18;6.50;98.30
18341;DHT22;9296;48.084;16.352;2023-02-28T15:50:49;6.50;98.30
18341;DHT22;9296;48.084;16.352;2023-02-28T15:53:19;6.50;98.30
18341;DHT22;9296;48.084;16.352;2023-02-28T15:55:54;6.40;98.40
18341;DHT22;9296;48.084;16.352;2023-02-28T16:05:25;6.20;98.60
18341;DHT22;9296;48.084;16.352;2023-02-28T16:07:58;6.20;98.80
18341;DHT22;9296;48.084;16.352;2023-02-28T16:10:26;6.20;99.00
18341;DHT22;9296;48.084;16.352;2023-02-28T16:12:55;6.40;98.80
18341;DHT22;9296;48.084;16.352;2023-02-28T16:15:24;6.20;98.90
18341;DHT22;9296;48.084;16.352;2023-02-28T16:17:53;6.20;99.10
18341;DHT22;9296;48.084;16.352;2023-02-28T16:20:23;6.10;99.40
18341;DHT22;9296;48.084;16.352;2023-02-28T16:22:51;6.10;99.40
18341;DHT22;9296;48.084;16.352;2023-02-28T16:25:20;6.00;99.50
18341;DHT22;9296;48.084;16.352;2023-02-28T16:27:49;6.10;99.60
18341;DHT22;9296;48.084;16.352;2023-02-28T16:30:22;6.10;99.90
18341;DHT22;9296;48.084;16.352;2023-02-28T16:32:50;6.00;99.90
18341;DHT22;9296;48.084;16.352;2023-02-28T16:35:18;6.00;99.90
18341;DHT22;9296;48.084;16.352;2023-02-28T16:37:47;5.90;99.90
18341;DHT22;9296;48.084;16.352;2023-02-28T16:40:15;5.90;99.90
18341;DHT22;9296;48.084;16.352;2023-02-28T16:42:43;5.90;99.90
18341;DHT22;9296;48.084;16.352;2023-02-28T16:45:16;5.80;99.90
18341;DHT22;9296;48.084;16.352;2023-02-28T16:47:44;5.80;99.90
18341;DHT22;9296;48.084;16.352;2023-02-28T16:50:16;5.70;99.90
18341;DHT22;9296;48.084;16.352;2023-02-28T16:52:43;5.70;99.90
18341;DHT22;9296;48.084;16.352;2023-02-28T16:55:12;5.70;99.90
18341;DHT22;9296;48.084;16.352;2023-02-28T16:57:59;5.70;99.90
18341;DHT22;9296;48.084;16.352;2023-02-28T17:00:28;5.70;99.90
18341;DHT22;9296;48.084;16.352;2023-02-28T17:02:56;5.60;99.90
18341;DHT22;9296;48.084;16.352;2023-02-28T17:05:25;5.60;99.90
18341;DHT22;9296;48.084;16.352;2023-02-28T17:07:52;5.60;99.90
18341;DHT22;9296;48.084;16.352;2023-02-28T17:10:22;5.50;99.90
18341;DHT22;9296;48.084;16.352;2023-02-28T17:12:49;5.60;99.90
18341;DHT22;9296;48.084;16.352;2023-02-28T17:15:18;5.40;99.90
18341;DHT22;9296;48.084;16.352;2023-02-28T17:17:46;5.40;99.90
18341;DHT22;9296;48.084;16.352;2023-02-28T17:20:14;5.30;99.90
18341;DHT22;9296;48.084;16.352;2023-02-28T17:22:41;5.20;99.90
18341;DHT22;9296;48.084;16.352;2023-02-28T17:25:09;5.10;99.90
18341;DHT22;9296;48.084;16.352;2023-02-28T17:27:57;5.10;99.90
18341;DHT22;9296;48.084;16.352;2023-02-28T17:30:26;5.00;99.90
18341;DHT22;9296;48.084;16.352;2023-02-28T17:32:54;4.90;99.90
18341;DHT22;9296;48.084;16.352;2023-02-28T17:35:21;4.90;99.90
18341;DHT22;9296;48.084;16.352;2023-02-28T17:37:48;4.90;99.90
18341;DHT22;9296;48.084;16.352;2023-02-28T17:40:16;4.80;99.90
18341;DHT22;9296;48.084;16.352;2023-02-28T17:42:43;4.70;99.90
18341;DHT22;9296;48.084;16.352;2023-02-28T17:45:13;4.70;99.90
18341;DHT22;9296;48.084;16.352;2023-02-28T17:47:42;4.60;99.90
18341;DHT22;9296;48.084;16.352;2023-02-28T17:50:14;4.50;99.90
18341;DHT22;9296;48.084;16.352;2023-02-28T17:52:41;4.40;99.90
18341;DHT22;9296;48.084;16.352;2023-02-28T17:55:09;4.30;99.90
18341;DHT22;9296;48.084;16.352;2023-02-28T18:00:45;4.20;99.90